createdAt,value
2022-08-16T00:01:21.986Z,99935.34
2022-08-16T00:03:51.502Z,99940.69
2022-08-16T00:06:17.970Z,99945.41
2022-08-16T00:08:45.850Z,99948.53
2022-08-16T00:11:16.499Z,99945.16
2022-08-16T00:13:53.930Z,99944.06
2022-08-16T00:17:05.923Z,99957.25
2022-08-16T00:19:15.981Z,99950.88
2022-08-16T00:21:43.978Z,99947.25
2022-08-16T00:24:12.727Z,99955.13
2022-08-16T00:26:45.048Z,99957.53
2022-08-16T00:29:15.634Z,99952.19
2022-08-16T00:31:59.318Z,99959.34
2022-08-16T00:34:44.340Z,99964.56
2022-08-16T00:37:17.025Z,99972.34
2022-08-16T00:39:47.217Z,99968.94
2022-08-16T00:42:14.638Z,99961.69
2022-08-16T00:45:08.186Z,99961.69
2022-08-16T00:47:37.085Z,99965.91
2022-08-16T00:50:05.419Z,99960.59
2022-08-16T00:52:38.471Z,99962.91
2022-08-16T00:55:12.615Z,99966.31
2022-08-16T00:57:58.524Z,99968.13
2022-08-16T01:00:28.592Z,99970.91
2022-08-16T01:02:59.620Z,99970.78
2022-08-16T01:05:27.350Z,99968.25
2022-08-16T01:07:55.013Z,99963.38
2022-08-16T01:10:32.455Z,99967.72
2022-08-16T01:13:05.409Z,99968.47
2022-08-16T01:15:34.061Z,99971.25
2022-08-16T01:18:04.338Z,99966.88
2022-08-16T01:20:34.803Z,99974.03
2022-08-16T01:23:10.828Z,99968.56
2022-08-16T01:25:42.441Z,99974.75
2022-08-16T01:28:19.815Z,99970.50
2022-08-16T01:30:53.139Z,99965.19
2022-08-16T01:33:22.453Z,99968.19
2022-08-16T01:35:58.424Z,99972.66
2022-08-16T01:38:32.329Z,99971.69
2022-08-16T01:41:21.391Z,99962.84
2022-08-16T01:43:54.179Z,99965.66
2022-08-16T01:46:39.537Z,99959.84
2022-08-16T01:49:14.119Z,99958.09
2022-08-16T01:51:43.575Z,99960.78
2022-08-16T01:54:13.157Z,99957.16
2022-08-16T01:56:40.877Z,99952.78
2022-08-16T01:59:15.525Z,99953.75
2022-08-16T02:01:44.484Z,99953.88
2022-08-16T02:04:48.410Z,99958.59
2022-08-16T02:07:08.738Z,99964.78
2022-08-16T02:09:39.473Z,99967.44
2022-08-16T02:12:50.596Z,99971.06
2022-08-16T02:14:54.792Z,99971.06
2022-08-16T02:17:21.440Z,99971.06
2022-08-16T02:19:58.945Z,99967.66
2022-08-16T02:22:34.395Z,99975.63
2022-08-16T02:25:07.185Z,99965.94
2022-08-16T02:27:36.478Z,99964.47
2022-08-16T02:30:06.372Z,99978.00
2022-08-16T02:33:00.985Z,99971.81
2022-08-16T02:35:23.270Z,99968.03
2022-08-16T02:37:52.586Z,99963.53
2022-08-16T02:40:22.434Z,99958.22
2022-08-16T02:42:50.635Z,99961.97
2022-08-16T02:45:20.400Z,99964.88
2022-08-16T02:48:00.252Z,99963.38
2022-08-16T02:50:55.187Z,99957.34
2022-08-16T02:53:18.165Z,99965.31
2022-08-16T02:55:45.263Z,99957.34
2022-08-16T02:58:17.096Z,99960.22
2022-08-16T03:00:45.406Z,99962.84
2022-08-16T03:03:17.945Z,99960.41
2022-08-16T03:05:52.159Z,99963.78
2022-08-16T03:08:52.371Z,99958.56
2022-08-16T03:11:16.792Z,99960.63
2022-08-16T03:13:56.569Z,99961.06
2022-08-16T03:16:38.759Z,99957.31
2022-08-16T03:19:09.373Z,99951.72
2022-08-16T03:21:37.800Z,99957.03
2022-08-16T03:24:27.757Z,99954.97
2022-08-16T03:26:58.045Z,99958.66
2022-08-16T03:29:30.163Z,99960.34
2022-08-16T03:31:58.974Z,99966.75
2022-08-16T03:34:26.659Z,99967.72
2022-08-16T03:36:53.498Z,99972.09
2022-08-16T03:39:20.175Z,99974.63
2022-08-16T03:41:49.842Z,99979.84
2022-08-16T03:44:44.351Z,99981.25
2022-08-16T03:47:04.822Z,99980.41
2022-08-16T03:49:37.580Z,99979.75
2022-08-16T03:52:05.548Z,99983.69
2022-08-16T03:54:32.031Z,99977.72
2022-08-16T03:57:02.972Z,99976.16
2022-08-16T03:59:32.176Z,99970.72
2022-08-16T04:02:01.262Z,99970.84
2022-08-16T04:04:32.726Z,99975.31
2022-08-16T04:07:02.823Z,99982.44
2022-08-16T04:09:35.388Z,99984.25
2022-08-16T04:12:11.336Z,99983.72
2022-08-16T04:14:51.592Z,99976.69
2022-08-16T04:17:18.511Z,99980.19
2022-08-16T04:19:46.713Z,99992.97
2022-08-16T04:22:13.683Z,99985.09
2022-08-16T04:24:53.207Z,99996.81
2022-08-16T04:27:21.260Z,100001.59
2022-08-16T04:29:47.722Z,100003.38
2022-08-16T04:32:19.796Z,99999.88
2022-08-16T04:34:46.972Z,100009.03
2022-08-16T04:37:14.252Z,100009.78
2022-08-16T04:39:46.858Z,100014.25
2022-08-16T04:42:16.093Z,100013.50
2022-08-16T04:44:53.410Z,100008.38
2022-08-16T04:47:24.449Z,100014.66
2022-08-16T04:49:52.561Z,100014.47
2022-08-16T04:52:33.174Z,100022.44
2022-08-16T04:55:05.756Z,100019.03
2022-08-16T04:57:32.251Z,100025.41
2022-08-16T04:59:58.744Z,100023.81
2022-08-16T05:02:46.239Z,100024.69
2022-08-16T05:05:17.676Z,100018.41
2022-08-16T05:07:58.511Z,100022.88
2022-08-16T05:10:28.467Z,100024.69
2022-08-16T05:12:57.468Z,100027.22
2022-08-16T05:15:24.063Z,100035.31
2022-08-16T05:17:58.914Z,100035.94
2022-08-16T05:20:39.130Z,100034.22
2022-08-16T05:23:15.121Z,100035.94
2022-08-16T05:25:48.472Z,100040.28
2022-08-16T05:28:17.055Z,100037.63
2022-08-16T05:30:43.893Z,100034.91
2022-08-16T05:33:16.856Z,100042.75
2022-08-16T05:35:55.099Z,100047.00
2022-08-16T05:38:33.062Z,100050.28
2022-08-16T05:41:05.898Z,100042.22
2022-08-16T05:43:43.366Z,100037.00
2022-08-16T05:46:30.226Z,100040.63
2022-08-16T05:49:08.576Z,100040.50
2022-08-16T05:51:41.546Z,100037.66
2022-08-16T05:54:09.787Z,100037.44
2022-08-16T05:56:39.297Z,100041.78
2022-08-16T05:59:07.129Z,100038.28
2022-08-16T06:01:38.777Z,100039.00
2022-08-16T06:04:12.717Z,100042.44
2022-08-16T06:06:57.606Z,100047.66
2022-08-16T06:09:43.632Z,100045.50
2022-08-16T06:12:26.947Z,100050.81
2022-08-16T06:15:01.604Z,100052.53
2022-08-16T06:17:42.352Z,100054.25
2022-08-16T06:20:14.302Z,100060.19
2022-08-16T06:22:40.920Z,100068.06
2022-08-16T06:25:12.857Z,100065.28
2022-08-16T06:27:41.884Z,100068.75
2022-08-16T06:30:24.152Z,100070.44
2022-08-16T06:32:55.617Z,100070.22
2022-08-16T06:35:22.296Z,100063.06
2022-08-16T06:37:51.226Z,100067.34
2022-08-16T06:40:18.239Z,100063.72
2022-08-16T06:42:47.444Z,100066.16
2022-08-16T06:45:15.164Z,100064.25
2022-08-16T06:47:53.116Z,100064.97
2022-08-16T06:50:28.960Z,100066.47
2022-08-16T06:52:57.851Z,100068.91
2022-08-16T06:55:25.508Z,100063.47
2022-08-16T06:57:55.051Z,100059.75
2022-08-16T07:00:24.727Z,100064.00
2022-08-16T07:02:56.825Z,100072.72
2022-08-16T07:05:26.987Z,100069.94
2022-08-16T07:08:06.043Z,100080.50
2022-08-16T07:10:32.579Z,100091.66
2022-08-16T07:13:04.471Z,100092.31
2022-08-16T07:15:38.055Z,100092.09
2022-08-16T07:18:20.162Z,100099.09
2022-08-16T07:20:49.401Z,100101.66
2022-08-16T07:23:17.236Z,100098.78
2022-08-16T07:25:44.922Z,100096.75
2022-08-16T07:28:20.879Z,100107.16
2022-08-16T07:30:50.999Z,100099.09
2022-08-16T07:33:21.383Z,100092.69
2022-08-16T07:36:07.259Z,100086.03
2022-08-16T07:38:34.348Z,100093.94
2022-08-16T07:41:01.939Z,100099.03
2022-08-16T07:43:36.516Z,100093.81
2022-08-16T07:46:07.295Z,100092.00
2022-08-16T07:48:55.273Z,100094.44
2022-08-16T07:51:31.635Z,100092.63
2022-08-16T07:54:02.726Z,100102.09
2022-08-16T07:56:37.596Z,100109.00
2022-08-16T07:59:05.039Z,100113.38
2022-08-16T08:01:31.914Z,100122.22
2022-08-16T08:03:58.957Z,100119.38
2022-08-16T08:06:28.854Z,100127.25
2022-08-16T08:08:57.446Z,100122.66
2022-08-16T08:11:28.220Z,100120.63
2022-08-16T08:13:55.603Z,100120.06
2022-08-16T08:16:30.546Z,100118.03
2022-08-16T08:19:01.236Z,100119.63
2022-08-16T08:21:58.193Z,100118.53
2022-08-16T08:24:17.635Z,100119.38
2022-08-16T08:26:44.530Z,100108.50
2022-08-16T08:29:17.315Z,100125.09
2022-08-16T08:31:49.933Z,100131.81
2022-08-16T08:34:18.797Z,100129.75
2022-08-16T08:36:45.320Z,100128.91
2022-08-16T08:39:12.555Z,100141.16
2022-08-16T08:41:41.482Z,100132.94
2022-08-16T08:44:29.130Z,100139.28
2022-08-16T08:46:59.992Z,100145.50
2022-08-16T08:49:46.688Z,100140.69
2022-08-16T08:52:34.190Z,100139.19
2022-08-16T08:55:11.079Z,100139.81
2022-08-16T08:57:46.550Z,100150.38
2022-08-16T09:00:17.676Z,100141.16
2022-08-16T09:02:52.257Z,100145.47
2022-08-16T09:05:22.146Z,100143.66
2022-08-16T09:08:00.903Z,100145.59
2022-08-16T09:10:30.144Z,100152.06
2022-08-16T09:12:57.943Z,100158.63
2022-08-16T09:15:26.431Z,100153.41
2022-08-16T09:17:59.559Z,100150.13
2022-08-16T09:20:29.234Z,100152.91
2022-08-16T09:22:57.835Z,100152.91
2022-08-16T09:25:26.467Z,100153.75
2022-08-16T09:28:02.813Z,100151.09
2022-08-16T09:30:43.846Z,100155.47
2022-08-16T09:33:13.658Z,100158.53
2022-08-16T09:35:42.737Z,100160.34
2022-08-16T09:38:31.998Z,100151.75
2022-08-16T09:40:59.892Z,100152.81
2022-08-16T09:43:58.605Z,100148.69
2022-08-16T09:46:46.009Z,100150.28
2022-08-16T09:49:03.259Z,100153.47
2022-08-16T09:51:30.622Z,100152.84
2022-08-16T09:54:02.966Z,100152.97
2022-08-16T09:56:33.344Z,100150.31
2022-08-16T09:59:04.941Z,100145.94
2022-08-16T10:01:36.259Z,100152.25
2022-08-16T10:04:04.081Z,100144.06
2022-08-16T10:06:33.272Z,100148.88
2022-08-16T10:09:11.461Z,100154.47
2022-08-16T10:12:11.285Z,100147.69
2022-08-16T10:14:45.864Z,100145.97
2022-08-16T10:17:12.717Z,100144.38
2022-08-16T10:19:39.729Z,100136.47
2022-08-16T10:22:06.267Z,100142.66
2022-08-16T10:24:33.772Z,100140.44
2022-08-16T10:27:22.219Z,100138.16
2022-08-16T10:30:01.330Z,100128.94
2022-08-16T10:32:34.472Z,100129.41
2022-08-16T10:35:03.200Z,100138.66
2022-08-16T10:37:32.738Z,100132.31
2022-08-16T10:40:06.029Z,100133.03
2022-08-16T10:42:32.641Z,100133.88
2022-08-16T10:44:59.919Z,100132.28
2022-08-16T10:47:26.661Z,100138.16
2022-08-16T10:49:59.377Z,100143.94
2022-08-16T10:52:26.320Z,100143.28
2022-08-16T10:55:41.096Z,100135.97
2022-08-16T10:57:46.989Z,100129.50
2022-08-16T11:00:22.525Z,100136.81
2022-08-16T11:02:59.078Z,100135.91
2022-08-16T11:08:35.487Z,100138.25
2022-08-16T11:11:12.687Z,100134.28
2022-08-16T11:14:11.460Z,100138.09
2022-08-16T11:19:20.112Z,100141.81
2022-08-16T11:24:42.345Z,100138.63
2022-08-16T11:27:23.892Z,100140.84
2022-08-16T11:29:55.067Z,100135.63
2022-08-16T11:32:31.941Z,100140.84
2022-08-16T11:35:13.954Z,100142.47
2022-08-16T11:40:52.558Z,100150.31
2022-08-16T11:43:23.525Z,100152.69
2022-08-16T11:45:54.560Z,100140.06
2022-08-16T11:48:24.792Z,100144.31
2022-08-16T11:50:51.681Z,100145.59
2022-08-16T11:53:19.329Z,100136.28
2022-08-16T11:55:45.889Z,100146.00
2022-08-16T11:58:18.078Z,100136.84
2022-08-16T12:00:51.571Z,100145.25
2022-08-16T12:03:22.704Z,100147.72
2022-08-16T12:05:54.252Z,100141.09
2022-08-16T12:08:22.495Z,100139.81
2022-08-16T12:10:52.980Z,100140.13
2022-08-16T12:13:19.514Z,100141.44
2022-08-16T12:15:47.869Z,100144.81
2022-08-16T12:18:20.858Z,100144.00
2022-08-16T12:20:48.119Z,100150.72
2022-08-16T12:23:15.567Z,100142.41
2022-08-16T12:25:44.218Z,100144.25
2022-08-16T12:28:10.734Z,100140.84
2022-08-16T12:30:42.011Z,100137.78
2022-08-16T12:33:11.795Z,100135.81
2022-08-16T12:35:39.759Z,100133.16
2022-08-16T12:38:08.580Z,100137.94
2022-08-16T12:40:53.001Z,100138.44
2022-08-16T12:43:25.300Z,100140.84
2022-08-16T12:45:54.100Z,100142.56
2022-08-16T12:48:43.780Z,100144.28
2022-08-16T12:51:22.309Z,100150.88
2022-08-16T12:53:52.913Z,100148.78
2022-08-16T12:56:25.177Z,100148.25
2022-08-16T12:58:52.470Z,100140.34
2022-08-16T13:01:22.589Z,100147.38
2022-08-16T13:03:50.209Z,100145.81
2022-08-16T13:06:29.315Z,100158.50
2022-08-16T13:09:02.365Z,100150.66
2022-08-16T13:11:36.174Z,100142.56
2022-08-16T13:14:05.429Z,100136.38
2022-08-16T13:16:32.041Z,100137.25
2022-08-16T13:19:00.732Z,100138.50
2022-08-16T13:21:27.234Z,100135.22
2022-08-16T13:23:55.749Z,100140.06
2022-08-16T13:26:23.765Z,100129.88
2022-08-16T13:28:50.496Z,100136.44
2022-08-16T13:31:17.236Z,100134.84
2022-08-16T13:33:44.318Z,100135.97
2022-08-16T13:36:21.403Z,100134.91
2022-08-16T13:38:59.899Z,100134.22
2022-08-16T13:41:30.283Z,100125.69
2022-08-16T13:44:00.821Z,100124.81
2022-08-16T13:46:32.302Z,100121.13
2022-08-16T13:48:59.459Z,100120.13
2022-08-16T13:51:29.223Z,100128.88
2022-08-16T13:54:02.965Z,100128.78
2022-08-16T13:56:38.036Z,100123.50
2022-08-16T13:59:19.341Z,100129.63
2022-08-16T14:01:54.428Z,100134.06
2022-08-16T14:04:27.624Z,100124.97
2022-08-16T14:06:56.264Z,100118.72
2022-08-16T14:09:23.791Z,100130.84
2022-08-16T14:11:53.436Z,100128.34
2022-08-16T14:14:28.311Z,100130.13
2022-08-16T14:16:58.907Z,100128.16
2022-08-16T14:19:26.592Z,100128.16
2022-08-16T14:22:14.444Z,100120.31
2022-08-16T14:24:45.376Z,100131.66
2022-08-16T14:27:13.688Z,100123.00
2022-08-16T14:29:42.066Z,100127.94
2022-08-16T14:32:09.310Z,100129.47
2022-08-16T14:34:40.495Z,100120.88
2022-08-16T14:37:07.453Z,100133.31
2022-08-16T14:39:34.870Z,100128.91
2022-08-16T14:42:08.966Z,100141.41
2022-08-16T14:44:37.862Z,100129.19
2022-08-16T14:47:06.236Z,100135.03
2022-08-16T14:49:34.711Z,100134.41
2022-08-16T14:52:08.660Z,100141.09
2022-08-16T14:54:36.401Z,100135.72
2022-08-16T14:57:03.168Z,100129.44
2022-08-16T14:59:30.666Z,100131.72
2022-08-16T15:02:02.431Z,100134.56
2022-08-16T15:04:48.011Z,100125.97
2022-08-16T15:07:16.654Z,100131.63
2022-08-16T15:10:00.525Z,100128.75
2022-08-16T15:12:30.908Z,100127.84
2022-08-16T15:15:04.377Z,100121.81
2022-08-16T15:17:41.794Z,100126.16
2022-08-16T15:20:20.773Z,100121.91
2022-08-16T15:22:49.332Z,100123.56
2022-08-16T15:25:23.812Z,100115.69
2022-08-16T15:27:55.922Z,100111.00
2022-08-16T15:30:57.175Z,100121.13
2022-08-16T15:33:17.400Z,100127.56
2022-08-16T15:35:46.219Z,100130.00
2022-08-16T15:38:55.149Z,100131.59
2022-08-16T15:41:01.002Z,100132.19
2022-08-16T15:43:39.572Z,100126.66
2022-08-16T15:46:54.049Z,100127.63
2022-08-16T15:49:09.541Z,100138.06
2022-08-16T15:51:36.868Z,100135.19
2022-08-16T15:54:29.801Z,100137.88
2022-08-16T15:56:55.301Z,100140.31
2022-08-16T15:59:24.632Z,100134.00
2022-08-16T16:01:55.833Z,100127.91
2022-08-16T16:04:25.636Z,100128.97
2022-08-16T16:06:54.935Z,100127.16
2022-08-16T16:09:26.156Z,100128.44
2022-08-16T16:12:16.256Z,100124.47
2022-08-16T16:14:51.270Z,100132.00
2022-08-16T16:17:17.751Z,100128.59
2022-08-16T16:19:44.288Z,100132.69
2022-08-16T16:22:10.859Z,100123.78
2022-08-16T16:24:39.842Z,100133.38
2022-08-16T16:27:06.536Z,100131.25
2022-08-16T16:29:37.176Z,100137.59
2022-08-16T16:32:11.125Z,100136.59
2022-08-16T16:34:38.936Z,100128.63
2022-08-16T16:37:05.548Z,100133.25
2022-08-16T16:39:37.030Z,100130.94
2022-08-16T16:42:05.177Z,100136.25
2022-08-16T16:44:33.855Z,100130.03
2022-08-16T16:47:03.420Z,100124.22
2022-08-16T16:49:30.079Z,100125.06
2022-08-16T16:52:06.448Z,100135.50
2022-08-16T16:54:35.457Z,100125.31
2022-08-16T16:57:02.306Z,100129.75
2022-08-16T16:59:29.119Z,100133.72
2022-08-16T17:02:38.635Z,100136.13
2022-08-16T17:04:45.534Z,100125.81
2022-08-16T17:07:14.119Z,100128.56
2022-08-16T17:09:41.203Z,100131.47
2022-08-16T17:12:10.148Z,100133.59
2022-08-16T17:14:42.620Z,100129.75
2022-08-16T17:17:11.640Z,100131.06
2022-08-16T17:19:41.458Z,100128.69
2022-08-16T17:22:20.265Z,100130.38
2022-08-16T17:24:50.874Z,100128.81
2022-08-16T17:27:33.270Z,100125.13
2022-08-16T17:30:14.802Z,100127.13
2022-08-16T17:32:50.305Z,100127.00
2022-08-16T17:35:33.657Z,100128.28
2022-08-16T17:38:04.670Z,100128.84
2022-08-16T17:40:46.882Z,100124.94
2022-08-16T17:43:31.774Z,100128.34
2022-08-16T17:45:59.032Z,100128.94
2022-08-16T17:48:26.985Z,100128.66
2022-08-16T17:50:54.528Z,100125.84
2022-08-16T17:53:21.789Z,100128.84
2022-08-16T17:55:50.506Z,100131.81
2022-08-16T17:58:23.083Z,100127.56
2022-08-16T18:00:56.755Z,100130.69
2022-08-16T18:04:02.946Z,100135.19
2022-08-16T18:06:24.169Z,100130.25
2022-08-16T18:08:57.870Z,100130.69
2022-08-16T18:11:30.180Z,100132.41
2022-08-16T18:13:59.860Z,100138.03
2022-08-16T18:16:26.880Z,100143.84
2022-08-16T18:18:53.357Z,100144.25
2022-08-16T18:21:38.516Z,100141.59
2022-08-16T18:24:05.209Z,100134.09
2022-08-16T18:26:31.724Z,100143.97
2022-08-16T18:28:58.198Z,100129.16
2022-08-16T18:31:25.200Z,100142.88
2022-08-16T18:33:55.687Z,100135.22
2022-08-16T18:36:23.083Z,100150.78
2022-08-16T18:38:50.391Z,100149.31
2022-08-16T18:41:18.368Z,100152.13
2022-08-16T18:44:04.792Z,100153.53
2022-08-16T18:46:31.413Z,100158.19
2022-08-16T18:48:57.923Z,100152.28
2022-08-16T18:51:25.587Z,100157.78
2022-08-16T18:53:52.662Z,100153.66
2022-08-16T18:56:19.600Z,100155.91
2022-08-16T18:58:46.177Z,100155.34
2022-08-16T19:01:12.692Z,100156.63
2022-08-16T19:03:39.248Z,100164.78
2022-08-16T19:06:11.437Z,100168.72
2022-08-16T19:08:41.977Z,100169.13
2022-08-16T19:11:14.013Z,100164.19
2022-08-16T19:13:43.970Z,100172.38
2022-08-16T19:16:10.465Z,100166.41
2022-08-16T19:18:37.140Z,100169.38
2022-08-16T19:21:05.036Z,100167.22
2022-08-16T19:23:35.662Z,100176.53
2022-08-16T19:26:06.889Z,100174.06
2022-08-16T19:28:51.864Z,100177.19
2022-08-16T19:31:29.788Z,100182.91
2022-08-16T19:33:57.103Z,100191.09
2022-08-16T19:36:31.480Z,100194.19
2022-08-16T19:39:11.147Z,100197.13
2022-08-16T19:41:40.539Z,100205.97
2022-08-16T19:44:07.857Z,100199.19
2022-08-16T19:46:35.416Z,100200.03
2022-08-16T19:49:02.035Z,100206.38
2022-08-16T19:51:29.013Z,100202.00
2022-08-16T19:53:55.623Z,100201.38
2022-08-16T19:56:25.612Z,100212.91
2022-08-16T19:59:17.324Z,100216.09
2022-08-16T20:01:42.353Z,100210.88
2022-08-16T20:04:12.129Z,100227.19
2022-08-16T20:06:39.748Z,100215.91
2022-08-16T20:09:07.067Z,100221.78
2022-08-16T20:11:34.755Z,100227.03
2022-08-16T20:14:02.090Z,100230.84
2022-08-16T20:16:28.915Z,100225.41
2022-08-16T20:18:55.467Z,100228.56
2022-08-16T20:21:22.010Z,100231.03
2022-08-16T20:23:48.536Z,100236.69
2022-08-16T20:26:15.362Z,100242.88
2022-08-16T20:28:54.075Z,100235.75
2022-08-16T20:31:25.448Z,100235.47
2022-08-16T20:33:53.025Z,100244.47
2022-08-16T20:36:19.533Z,100247.38
2022-08-16T20:38:47.364Z,100243.88
2022-08-16T20:41:15.515Z,100245.81
2022-08-16T20:43:42.401Z,100245.13
2022-08-16T20:46:08.893Z,100250.72
2022-08-16T20:48:35.697Z,100249.00
2022-08-16T20:51:02.199Z,100251.94
2022-08-16T20:53:28.649Z,100257.41
2022-08-16T20:55:55.148Z,100248.91
2022-08-16T20:58:21.932Z,100251.72
2022-08-16T21:00:48.525Z,100260.00
2022-08-16T21:03:15.160Z,100251.72
2022-08-16T21:05:41.676Z,100246.97
2022-08-16T21:08:51.759Z,100244.41
2022-08-16T21:11:21.628Z,100247.22
2022-08-16T21:13:48.164Z,100246.38
2022-08-16T21:16:16.906Z,100241.75
2022-08-16T21:18:43.472Z,100252.84
2022-08-16T21:21:11.966Z,100242.38
2022-08-16T21:23:38.845Z,100250.19
2022-08-16T21:26:10.713Z,100262.56
2022-08-16T21:28:41.466Z,100262.56
2022-08-16T21:31:17.328Z,100257.22
2022-08-16T21:33:54.149Z,100251.88
2022-08-16T21:36:35.113Z,100245.69
2022-08-16T21:39:05.341Z,100247.59
2022-08-16T21:41:32.005Z,100243.38
2022-08-16T21:43:58.478Z,100241.66
2022-08-16T21:46:25.080Z,100239.00
2022-08-16T21:48:51.565Z,100236.19
2022-08-16T21:51:18.052Z,100235.22
2022-08-16T21:53:44.734Z,100239.72
2022-08-16T21:56:16.659Z,100236.91
2022-08-16T21:58:44.567Z,100244.69
2022-08-16T22:01:11.534Z,100236.41
2022-08-16T22:03:38.197Z,100236.41
2022-08-16T22:06:13.167Z,100236.41
2022-08-16T22:08:49.800Z,100234.72
2022-08-16T22:11:19.964Z,100241.63
2022-08-16T22:13:56.500Z,100239.81
2022-08-16T22:16:26.229Z,100242.34
2022-08-16T22:18:52.739Z,100238.72
2022-08-16T22:21:19.502Z,100236.91
2022-08-16T22:23:46.001Z,100234.31
2022-08-16T22:26:30.968Z,100243.47
2022-08-16T22:29:03.351Z,100248.22
2022-08-16T22:31:29.951Z,100251.03
2022-08-16T22:33:56.981Z,100250.19
2022-08-16T22:36:24.413Z,100246.63
2022-08-16T22:39:00.218Z,100246.75
2022-08-16T22:41:28.330Z,100248.72
2022-08-16T22:43:55.115Z,100241.78
2022-08-16T22:46:21.619Z,100236.56
2022-08-16T22:48:50.372Z,100241.19
2022-08-16T22:51:21.664Z,100238.50
2022-08-16T22:53:48.368Z,100244.06
2022-08-16T22:56:18.141Z,100243.22
2022-08-16T22:58:45.717Z,100247.72
2022-08-16T23:01:14.526Z,100240.19
2022-08-16T23:03:41.811Z,100251.00
2022-08-16T23:06:10.308Z,100245.78
2022-08-16T23:08:40.619Z,100247.75
2022-08-16T23:11:14.338Z,100243.38
2022-08-16T23:13:49.999Z,100235.44
2022-08-16T23:16:22.509Z,100230.25
2022-08-16T23:18:49.402Z,100224.16
2022-08-16T23:21:17.516Z,100233.03
2022-08-16T23:23:46.514Z,100226.97
2022-08-16T23:26:44.636Z,100241.31
2022-08-16T23:29:04.269Z,100227.94
2022-08-16T23:31:32.569Z,100226.34
2022-08-16T23:33:59.323Z,100214.81
2022-08-16T23:36:25.919Z,100213.97
2022-08-16T23:38:52.554Z,100215.06
2022-08-16T23:41:19.128Z,100214.47
2022-08-16T23:43:45.583Z,100211.19
2022-08-16T23:46:15.492Z,100214.94
2022-08-16T23:49:58.840Z,100211.56
2022-08-16T23:51:29.371Z,100217.84
2022-08-16T23:53:56.245Z,100210.94
2022-08-16T23:56:22.835Z,100213.88
2022-08-16T23:59:02.426Z,100202.53
